Time;durP1;ratioP1;P1;durP2;ratioP2;P2;SDS_P1;SDS_P2;PMS_P1;PMS_P2;Temp;Humidity;BMP_temperature;BMP_pressure;BME280_temperature;BME280_humidity;BME280_pressure;Samples;Min_cycle;Max_cycle;Signal;HPM_P1;HPM_P2
2022/07/13 00:00:45;;;;;;;3.90;3.55;;;22.60;99.90;;;;;;2081264;28;20029;-71
2022/07/13 00:01:46;;;;;;;3.50;3.17;;;22.60;99.90;;;;;;2083446;28;20040;-71
2022/07/13 00:02:47;;;;;;;3.90;3.35;;;22.60;99.90;;;;;;2084523;28;20144;-71
2022/07/13 00:03:47;;;;;;;4.45;3.17;;;22.60;99.90;;;;;;2083856;28;20408;-71
2022/07/13 00:04:48;;;;;;;4.05;3.53;;;22.60;99.90;;;;;;2087809;28;20106;-71
2022/07/13 00:05:49;;;;;;;3.63;3.33;;;22.60;99.90;;;;;;2083365;28;20028;-71
2022/07/13 00:06:49;;;;;;;4.28;3.78;;;22.60;99.90;;;;;;2084416;28;20028;-71
2022/07/13 00:07:50;;;;;;;3.95;3.58;;;22.60;99.90;;;;;;2084401;28;20036;-71
2022/07/13 00:08:50;;;;;;;4.20;3.15;;;22.60;99.90;;;;;;2084152;28;20020;-71
2022/07/13 00:09:51;;;;;;;3.75;3.45;;;22.60;99.90;;;;;;2081558;28;20080;-71
2022/07/13 00:10:52;;;;;;;5.10;3.60;;;22.60;99.90;;;;;;2084117;28;20099;-71
2022/07/13 00:11:52;;;;;;;3.83;3.47;;;22.60;99.90;;;;;;2084656;28;20021;-71
2022/07/13 00:12:53;;;;;;;3.83;3.38;;;22.60;99.90;;;;;;2085644;28;20036;-71
2022/07/13 00:13:53;;;;;;;4.20;3.63;;;22.60;99.90;;;;;;2085607;28;20434;-71
2022/07/13 00:14:54;;;;;;;4.63;3.80;;;22.60;99.90;;;;;;2083598;28;20026;-71
2022/07/13 00:15:55;;;;;;;3.85;3.55;;;22.60;99.90;;;;;;2085827;28;20079;-71
2022/07/13 00:16:55;;;;;;;4.47;3.08;;;22.60;99.90;;;;;;2084043;28;20882;-71
2022/07/13 00:17:56;;;;;;;4.22;3.78;;;22.60;99.90;;;;;;2083323;28;20026;-71
2022/07/13 00:18:56;;;;;;;4.47;3.47;;;22.60;99.90;;;;;;2083597;28;20028;-71
2022/07/13 00:19:57;;;;;;;3.95;3.65;;;22.60;99.90;;;;;;2088904;28;20053;-71
2022/07/13 00:20:58;;;;;;;4.10;3.13;;;22.60;99.90;;;;;;2086130;28;20081;-71
2022/07/13 00:21:58;;;;;;;3.67;3.38;;;22.60;99.90;;;;;;2082328;28;20358;-71
2022/07/13 00:22:59;;;;;;;4.13;3.65;;;22.60;99.90;;;;;;2086235;28;20614;-71
2022/07/13 00:24:00;;;;;;;4.32;3.72;;;22.60;99.90;;;;;;2084523;28;20618;-71
2022/07/13 00:25:00;;;;;;;4.07;3.70;;;22.60;99.90;;;;;;2089435;28;20484;-71
2022/07/13 00:26:01;;;;;;;5.60;3.50;;;22.60;99.90;;;;;;2083501;28;20017;-71
2022/07/13 00:27:02;;;;;;;4.15;3.80;;;22.60;99.90;;;;;;2085796;28;20096;-71
2022/07/13 00:28:02;;;;;;;3.63;3.33;;;22.50;99.90;;;;;;2087681;28;20026;-71
2022/07/13 00:29:03;;;;;;;3.30;3.00;;;22.60;99.90;;;;;;2086233;28;20036;-71
2022/07/13 00:30:04;;;;;;;3.67;3.38;;;22.60;99.90;;;;;;2080263;28;20036;-71
2022/07/13 00:31:05;;;;;;;4.05;3.58;;;22.60;99.90;;;;;;2085384;28;20029;-71
2022/07/13 00:32:05;;;;;;;4.47;3.65;;;22.50;99.90;;;;;;2083679;28;20467;-71
2022/07/13 00:33:07;;;;;;;3.85;3.47;;;22.50;99.90;;;;;;2085923;28;20037;-71
2022/07/13 00:34:07;;;;;;;3.78;3.47;;;22.60;99.90;;;;;;2085695;28;20037;-71
2022/07/13 00:35:08;;;;;;;4.45;3.55;;;22.50;99.90;;;;;;2088821;28;20035;-71
2022/07/13 00:36:09;;;;;;;5.22;3.42;;;22.50;99.90;;;;;;2086649;28;20497;-71
2022/07/13 00:37:09;;;;;;;4.25;3.67;;;22.50;99.90;;;;;;2084024;28;20032;-71
2022/07/13 00:38:10;;;;;;;3.47;3.28;;;22.50;99.90;;;;;;2082490;28;20053;-71
2022/07/13 00:39:10;;;;;;;4.07;3.63;;;22.50;99.90;;;;;;2083223;28;20143;-71
2022/07/13 00:40:12;;;;;;;3.55;3.17;;;22.50;99.90;;;;;;2083824;28;20104;-71
2022/07/13 00:41:12;;;;;;;3.92;3.47;;;22.50;99.90;;;;;;2084768;28;20048;-71
2022/07/13 00:42:13;;;;;;;4.30;3.92;;;22.50;99.90;;;;;;2081345;28;20025;-71
2022/07/13 00:43:14;;;;;;;4.25;3.55;;;22.50;99.90;;;;;;2083385;28;20021;-71
2022/07/13 00:44:16;;;;;;;3.75;3.33;;;22.50;99.90;;;;;;2082745;28;20036;-71
2022/07/13 00:45:16;;;;;;;4.32;3.80;;;22.50;99.90;;;;;;2082708;28;20029;-71
2022/07/13 00:46:17;;;;;;;3.53;3.22;;;22.50;99.90;;;;;;2083026;28;20017;-71
2022/07/13 00:47:18;;;;;;;3.55;3.25;;;22.50;99.90;;;;;;2086588;28;20557;-71
2022/07/13 00:48:19;;;;;;;4.55;3.45;;;22.50;99.90;;;;;;2083318;28;20124;-71
2022/07/13 00:49:20;;;;;;;4.05;3.65;;;22.50;99.90;;;;;;2086673;28;20029;-71
2022/07/13 00:50:21;;;;;;;5.15;3.55;;;22.50;99.90;;;;;;2088312;28;20675;-71
2022/07/13 00:51:21;;;;;;;5.95;4.07;;;22.50;99.90;;;;;;2084965;28;20025;-71
2022/07/13 00:52:22;;;;;;;6.47;4.05;;;22.50;99.90;;;;;;2084674;28;20052;-71
2022/07/13 00:53:24;;;;;;;4.05;3.65;;;22.50;99.90;;;;;;2085948;28;20103;-71
2022/07/13 00:54:28;;;;;;;5.00;4.32;;;22.50;99.90;;;;;;2085323;28;20021;-71
2022/07/13 00:55:29;;;;;;;5.80;4.13;;;22.50;99.90;;;;;;2083730;28;20552;-71
2022/07/13 00:56:31;;;;;;;9.23;4.50;;;22.50;99.90;;;;;;2086623;28;20033;-71
2022/07/13 00:57:37;;;;;;;4.65;4.07;;;22.50;99.90;;;;;;2084453;28;20032;-71
2022/07/13 00:58:38;;;;;;;6.93;3.80;;;22.50;99.90;;;;;;2084617;28;20029;-71
2022/07/13 00:59:39;;;;;;;5.63;3.75;;;22.50;99.90;;;;;;2086976;28;20016;-71
2022/07/13 01:00:39;;;;;;;4.03;3.72;;;22.50;99.90;;;;;;2082876;28;20028;-71
2022/07/13 01:01:41;;;;;;;5.15;4.07;;;22.50;99.90;;;;;;2083770;28;20025;-71
2022/07/13 01:02:45;;;;;;;4.07;3.53;;;22.40;99.90;;;;;;2082886;28;20113;-71
2022/07/13 01:03:46;;;;;;;4.85;4.32;;;22.50;99.90;;;;;;2083031;28;20029;-71
2022/07/13 01:04:46;;;;;;;5.72;4.22;;;22.40;99.90;;;;;;2091138;28;20119;-71
2022/07/13 01:05:47;;;;;;;8.23;3.97;;;22.40;99.90;;;;;;2085858;28;20017;-71
2022/07/13 01:06:48;;;;;;;5.00;3.85;;;22.40;99.90;;;;;;2086961;28;20025;-71
2022/07/13 01:07:49;;;;;;;7.15;4.07;;;22.40;99.90;;;;;;2088862;28;20029;-71
2022/07/13 01:08:50;;;;;;;4.75;3.70;;;22.30;99.90;;;;;;2085571;28;20051;-71
2022/07/13 01:09:50;;;;;;;6.90;4.55;;;22.40;99.90;;;;;;2083122;28;20021;-71
2022/07/13 01:10:53;;;;;;;5.18;3.90;;;22.30;99.90;;;;;;2085572;28;20024;-71
2022/07/13 01:11:53;;;;;;;4.00;3.70;;;22.30;99.90;;;;;;2081959;28;20477;-71
2022/07/13 01:12:54;;;;;;;4.82;4.05;;;22.30;99.90;;;;;;2083034;28;20116;-71
2022/07/13 01:13:55;;;;;;;5.75;3.97;;;22.30;99.90;;;;;;2087018;28;20108;-71
2022/07/13 01:14:58;;;;;;;4.72;4.28;;;22.30;99.90;;;;;;2087078;28;20731;-71
2022/07/13 01:15:58;;;;;;;8.52;4.35;;;22.30;99.90;;;;;;2086003;28;20025;-71
2022/07/13 01:17:00;;;;;;;5.82;3.97;;;22.30;99.90;;;;;;2083535;28;20032;-71
2022/07/13 01:18:01;;;;;;;4.70;4.30;;;22.30;99.90;;;;;;2082424;28;20029;-71
2022/07/13 01:19:04;;;;;;;5.53;4.03;;;22.30;99.90;;;;;;2086690;28;20029;-71
2022/07/13 01:20:06;;;;;;;6.10;4.10;;;22.30;99.90;;;;;;2084726;28;20024;-71
2022/07/13 01:21:09;;;;;;;4.53;3.97;;;22.30;99.90;;;;;;2085778;28;20059;-72
2022/07/13 01:22:14;;;;;;;6.68;4.25;;;22.30;99.90;;;;;;2085410;28;20404;-71
2022/07/13 01:23:15;;;;;;;6.63;4.78;;;22.20;99.90;;;;;;2085139;28;20136;-71
2022/07/13 01:24:16;;;;;;;4.55;4.18;;;22.20;99.90;;;;;;2085608;28;20488;-71
2022/07/13 01:25:18;;;;;;;5.97;4.35;;;22.20;99.90;;;;;;2085787;28;20022;-71
2022/07/13 01:26:19;;;;;;;5.22;4.57;;;22.10;99.90;;;;;;2084024;28;20207;-71
2022/07/13 01:27:20;;;;;;;4.38;3.83;;;22.10;99.90;;;;;;2082705;28;20036;-71
2022/07/13 01:28:20;;;;;;;5.57;4.57;;;22.10;99.90;;;;;;2081948;28;20032;-71
2022/07/13 01:29:21;;;;;;;5.82;4.25;;;22.10;99.90;;;;;;2084012;28;20035;-71
2022/07/13 01:30:22;;;;;;;7.82;4.20;;;22.00;99.90;;;;;;2080644;28;20032;-71
2022/07/13 01:31:41;;;;;;;5.72;4.32;;;22.00;99.90;;;;;;2086042;28;20024;-71
2022/07/13 01:32:46;;;;;;;4.85;4.32;;;22.00;99.90;;;;;;2082148;28;20064;-71
2022/07/13 01:33:47;;;;;;;4.93;4.55;;;22.00;99.90;;;;;;2083648;28;20175;-71
2022/07/13 01:34:47;;;;;;;5.05;4.55;;;21.90;99.90;;;;;;2085632;28;20044;-71
2022/07/13 01:35:48;;;;;;;5.28;4.13;;;21.90;99.90;;;;;;2083999;28;20028;-71
2022/07/13 01:36:48;;;;;;;5.20;4.40;;;21.90;99.90;;;;;;2086144;28;20623;-71
2022/07/13 01:37:50;;;;;;;5.93;4.47;;;22.00;99.90;;;;;;2087783;28;20037;-71
2022/07/13 01:38:51;;;;;;;4.82;4.40;;;21.90;99.90;;;;;;2084668;28;20029;-71
2022/07/13 01:39:51;;;;;;;4.28;3.97;;;21.90;99.90;;;;;;2087940;28;20051;-71
2022/07/13 01:40:52;;;;;;;5.82;4.07;;;21.90;99.90;;;;;;2083058;28;20112;-71
2022/07/13 01:41:53;;;;;;;4.65;4.10;;;21.90;99.90;;;;;;2083618;28;20365;-71
2022/07/13 01:42:53;;;;;;;4.78;4.38;;;21.90;99.90;;;;;;2081862;28;20021;-71
2022/07/13 01:43:57;;;;;;;5.15;4.28;;;21.90;99.90;;;;;;2085869;28;20096;-71
2022/07/13 01:44:59;;;;;;;4.50;4.10;;;21.90;99.90;;;;;;2085539;28;20013;-71
2022/07/13 01:45:59;;;;;;;4.63;4.22;;;21.90;99.90;;;;;;2083153;28;20103;-71
2022/07/13 01:47:07;;;;;;;4.68;4.28;;;21.90;99.90;;;;;;2085600;28;20021;-71
2022/07/13 01:48:08;;;;;;;4.22;3.83;;;21.90;99.90;;;;;;2083499;28;20661;-71
2022/07/13 01:49:08;;;;;;;4.40;4.10;;;21.80;99.90;;;;;;2087771;28;20480;-71
2022/07/13 01:50:11;;;;;;;5.03;3.78;;;21.80;99.90;;;;;;2087054;28;20056;-71
2022/07/13 01:51:11;;;;;;;4.38;4.00;;;21.80;99.90;;;;;;2085658;28;20028;-71
2022/07/13 01:52:12;;;;;;;4.20;3.90;;;21.80;99.90;;;;;;2084744;28;20400;-71
2022/07/13 01:53:12;;;;;;;4.95;4.50;;;21.90;99.90;;;;;;2084637;28;20029;-71
2022/07/13 01:54:13;;;;;;;4.75;4.35;;;21.80;99.90;;;;;;2087072;28;20037;-71
2022/07/13 01:55:14;;;;;;;6.57;4.22;;;21.80;99.90;;;;;;2086050;28;20033;-71
2022/07/13 01:56:15;;;;;;;4.78;4.38;;;21.80;99.90;;;;;;2085008;28;20029;-71
2022/07/13 01:57:16;;;;;;;5.05;4.55;;;21.80;99.90;;;;;;2081886;28;20026;-71
2022/07/13 01:58:16;;;;;;;5.45;4.57;;;21.80;99.90;;;;;;2084121;28;20036;-71
2022/07/13 01:59:17;;;;;;;6.32;4.80;;;21.80;99.90;;;;;;2083700;28;20481;-71
2022/07/13 02:00:20;;;;;;;5.63;4.63;;;21.80;99.90;;;;;;2083039;28;20115;-71
2022/07/13 02:01:21;;;;;;;5.30;4.80;;;21.80;99.90;;;;;;2082653;28;20039;-71
2022/07/13 02:02:21;;;;;;;4.80;4.40;;;21.80;99.90;;;;;;2086387;28;20028;-71
2022/07/13 02:03:22;;;;;;;6.47;4.40;;;21.80;99.90;;;;;;2087632;28;20387;-71
2022/07/13 02:04:22;;;;;;;7.45;5.00;;;21.80;99.90;;;;;;2085109;28;20410;-71
2022/07/13 02:05:26;;;;;;;4.57;4.18;;;21.80;99.90;;;;;;2084320;28;20026;-71
2022/07/13 02:06:26;;;;;;;5.35;4.40;;;21.80;99.90;;;;;;2087768;28;20032;-71
2022/07/13 02:07:27;;;;;;;5.68;4.20;;;21.80;99.90;;;;;;2086909;28;20021;-71
2022/07/13 02:08:28;;;;;;;4.32;3.90;;;21.80;99.90;;;;;;2084800;28;20016;-71
2022/07/13 02:09:29;;;;;;;6.15;4.40;;;21.80;99.90;;;;;;2082055;28;20024;-72
2022/07/13 02:10:35;;;;;;;4.78;4.22;;;21.80;99.90;;;;;;2086045;28;20100;-72
2022/07/13 02:11:36;;;;;;;6.32;3.65;;;21.70;99.90;;;;;;2081109;28;20028;-72
2022/07/13 02:12:37;;;;;;;4.15;3.85;;;21.70;99.90;;;;;;2084489;28;20068;-72
2022/07/13 02:13:37;;;;;;;5.57;4.60;;;21.80;99.90;;;;;;2082751;28;20052;-72
2022/07/13 02:14:38;;;;;;;4.65;4.05;;;21.80;99.90;;;;;;2084749;28;20033;-72
2022/07/13 02:15:39;;;;;;;5.43;4.22;;;21.80;99.90;;;;;;2083113;28;20053;-72
2022/07/13 02:16:40;;;;;;;6.50;4.68;;;21.80;99.90;;;;;;2082039;28;20017;-72
2022/07/13 02:17:41;;;;;;;4.40;4.00;;;21.70;99.90;;;;;;2087864;28;20013;-72
2022/07/13 02:18:42;;;;;;;4.97;4.57;;;21.80;99.90;;;;;;2084443;28;20075;-72
2022/07/13 02:19:42;;;;;;;5.25;4.32;;;21.80;99.90;;;;;;2085026;28;20029;-72
2022/07/13 02:20:43;;;;;;;4.75;4.35;;;21.70;99.90;;;;;;2086521;28;20037;-72
2022/07/13 02:21:44;;;;;;;5.43;4.68;;;21.80;99.90;;;;;;2086891;28;20073;-72
2022/07/13 02:22:45;;;;;;;5.10;4.60;;;21.80;99.90;;;;;;2084632;28;20107;-72
2022/07/13 02:23:46;;;;;;;5.88;4.50;;;21.80;99.90;;;;;;2087224;28;20028;-72
2022/07/13 02:24:46;;;;;;;6.00;5.50;;;21.70;99.90;;;;;;2084757;28;20947;-72
2022/07/13 02:25:47;;;;;;;6.47;5.05;;;21.80;99.90;;;;;;2087065;28;20018;-71
2022/07/13 02:26:47;;;;;;;6.88;4.80;;;21.80;99.90;;;;;;2082895;28;20429;-71
2022/07/13 02:27:48;;;;;;;5.38;4.88;;;21.70;99.90;;;;;;2085335;28;20017;-72
2022/07/13 02:28:49;;;;;;;5.30;4.80;;;21.80;99.90;;;;;;2085840;28;20073;-72
2022/07/13 02:29:49;;;;;;;4.97;4.57;;;21.70;99.90;;;;;;2082633;28;20179;-72
2022/07/13 02:30:50;;;;;;;6.30;5.15;;;21.70;99.90;;;;;;2084546;28;20035;-72
2022/07/13 02:31:51;;;;;;;5.88;4.45;;;21.70;99.90;;;;;;2083828;28;20025;-72
2022/07/13 02:32:52;;;;;;;5.78;4.72;;;21.70;99.90;;;;;;2087927;28;20568;-72
2022/07/13 02:33:52;;;;;;;5.53;4.75;;;21.70;99.90;;;;;;2087497;28;20025;-72
2022/07/13 02:34:53;;;;;;;5.35;4.85;;;21.70;99.90;;;;;;2083839;28;20025;-72
2022/07/13 02:35:53;;;;;;;5.15;4.72;;;21.70;99.90;;;;;;2085215;28;20071;-72
2022/07/13 02:36:55;;;;;;;6.78;4.93;;;21.70;99.90;;;;;;2083012;28;20525;-71
2022/07/13 02:37:56;;;;;;;5.82;5.22;;;21.70;99.90;;;;;;2084819;28;20029;-71
2022/07/13 02:38:56;;;;;;;5.53;4.65;;;21.70;99.90;;;;;;2083441;28;20029;-71
2022/07/13 02:39:57;;;;;;;5.65;5.03;;;21.70;99.90;;;;;;2083569;28;20028;-71
2022/07/13 02:40:57;;;;;;;5.93;5.18;;;21.70;99.90;;;;;;2084366;28;20025;-71
2022/07/13 02:41:58;;;;;;;6.28;5.32;;;21.70;99.90;;;;;;2083552;28;20021;-71
2022/07/13 02:42:58;;;;;;;5.60;5.10;;;21.70;99.90;;;;;;2083646;28;20028;-71
2022/07/13 02:43:59;;;;;;;6.10;5.45;;;21.70;99.90;;;;;;2086631;28;20032;-71
2022/07/13 02:45:00;;;;;;;7.22;5.30;;;21.70;99.90;;;;;;2086037;28;20832;-71
2022/07/13 02:46:00;;;;;;;5.22;4.72;;;21.70;99.90;;;;;;2082291;28;20552;-71
2022/07/13 02:47:01;;;;;;;5.95;5.30;;;21.70;99.90;;;;;;2085632;28;20025;-71
2022/07/13 02:48:02;;;;;;;7.50;5.10;;;21.70;99.90;;;;;;2086074;28;20021;-71
2022/07/13 02:49:02;;;;;;;9.40;5.82;;;21.70;99.90;;;;;;2087329;28;20033;-71
2022/07/13 02:50:03;;;;;;;5.32;4.82;;;21.70;99.90;;;;;;2088703;28;20021;-71
2022/07/13 02:51:04;;;;;;;5.72;5.22;;;21.70;99.90;;;;;;2088426;28;20099;-71
2022/07/13 02:52:05;;;;;;;5.85;4.78;;;21.70;99.90;;;;;;2081892;28;20477;-71
2022/07/13 02:53:05;;;;;;;5.40;5.00;;;21.70;99.90;;;;;;2080695;28;20059;-71
2022/07/13 02:54:06;;;;;;;7.47;5.32;;;21.70;99.90;;;;;;2085606;28;20036;-71
2022/07/13 02:55:07;;;;;;;5.63;4.50;;;21.70;99.90;;;;;;2089394;28;20410;-71
2022/07/13 02:56:08;;;;;;;5.18;4.78;;;21.70;99.90;;;;;;2084750;28;20044;-71
2022/07/13 02:57:08;;;;;;;9.20;5.10;;;21.70;99.90;;;;;;2088897;28;20029;-71
2022/07/13 02:58:09;;;;;;;5.80;5.25;;;21.70;99.90;;;;;;2085896;28;20036;-71
2022/07/13 02:59:10;;;;;;;6.05;5.55;;;21.70;99.90;;;;;;2088573;28;20752;-71
2022/07/13 03:00:11;;;;;;;6.10;5.43;;;21.60;99.90;;;;;;2087569;28;20061;-71
2022/07/13 03:01:12;;;;;;;5.30;4.88;;;21.70;99.90;;;;;;2084704;28;20031;-71
2022/07/13 03:02:13;;;;;;;6.15;5.65;;;21.70;99.90;;;;;;2086983;28;20021;-71
2022/07/13 03:03:13;;;;;;;5.70;5.18;;;21.60;99.90;;;;;;2085659;28;20044;-71
2022/07/13 03:04:14;;;;;;;5.90;5.38;;;21.70;99.90;;;;;;2085929;28;20028;-71
2022/07/13 03:05:17;;;;;;;5.80;5.30;;;21.60;99.90;;;;;;2088503;28;20037;-71
2022/07/13 03:06:18;;;;;;;5.47;4.97;;;21.70;99.90;;;;;;2085809;28;20016;-71
2022/07/13 03:07:18;;;;;;;7.00;4.63;;;21.60;99.90;;;;;;2084156;28;20048;-71
2022/07/13 03:08:19;;;;;;;6.68;5.57;;;21.60;99.90;;;;;;2083204;28;20036;-71
2022/07/13 03:09:20;;;;;;;5.90;5.30;;;21.60;99.90;;;;;;2084838;28;21136;-71
2022/07/13 03:10:21;;;;;;;12.98;5.18;;;21.60;99.90;;;;;;2086870;28;20033;-71
2022/07/13 03:11:21;;;;;;;9.38;5.43;;;21.60;99.90;;;;;;2086452;28;20033;-71
2022/07/13 03:12:22;;;;;;;5.97;5.40;;;21.60;99.90;;;;;;2084381;28;20072;-71
2022/07/13 03:13:22;;;;;;;8.73;5.40;;;21.60;99.90;;;;;;2088348;28;20054;-71
2022/07/13 03:14:23;;;;;;;5.95;5.32;;;21.60;99.90;;;;;;2085937;28;20542;-71
2022/07/13 03:15:24;;;;;;;6.13;5.53;;;21.60;99.90;;;;;;2089622;28;20033;-71
2022/07/13 03:16:25;;;;;;;5.82;5.22;;;21.60;99.90;;;;;;2085972;28;20044;-70
2022/07/13 03:17:28;;;;;;;6.30;5.63;;;21.60;99.90;;;;;;2084160;28;20536;-71
2022/07/13 03:18:29;;;;;;;5.32;4.93;;;21.60;99.90;;;;;;2086795;28;20037;-71
2022/07/13 03:19:30;;;;;;;7.82;5.80;;;21.50;99.90;;;;;;2086908;28;20496;-71
2022/07/13 03:20:31;;;;;;;5.82;5.20;;;21.50;99.90;;;;;;2086568;28;20550;-71
2022/07/13 03:21:32;;;;;;;4.85;4.45;;;21.50;99.90;;;;;;2086257;28;20022;-71
2022/07/13 03:22:32;;;;;;;4.90;4.45;;;21.50;99.90;;;;;;2085485;28;20092;-71
2022/07/13 03:23:33;;;;;;;5.47;4.90;;;21.50;99.90;;;;;;2085538;28;20018;-71
2022/07/13 03:24:34;;;;;;;6.50;4.72;;;21.50;99.90;;;;;;2088150;28;20029;-71
2022/07/13 03:25:35;;;;;;;5.63;5.07;;;21.50;99.90;;;;;;2086374;28;20014;-71
2022/07/13 03:26:35;;;;;;;5.13;4.68;;;21.50;99.90;;;;;;2085872;28;20028;-71
2022/07/13 03:27:36;;;;;;;5.95;5.15;;;21.50;99.90;;;;;;2081014;28;20473;-71
2022/07/13 03:28:36;;;;;;;4.90;4.47;;;21.50;99.90;;;;;;2086656;28;20017;-71
2022/07/13 03:29:37;;;;;;;4.88;4.38;;;21.50;99.90;;;;;;2087225;28;20041;-71
2022/07/13 03:30:38;;;;;;;4.35;4.00;;;21.50;99.90;;;;;;2087680;28;20100;-71
2022/07/13 03:31:38;;;;;;;7.78;4.45;;;21.50;99.90;;;;;;2086386;28;20029;-71
2022/07/13 03:32:39;;;;;;;5.07;4.20;;;21.60;99.90;;;;;;2086020;28;20033;-71
2022/07/13 03:33:39;;;;;;;4.60;4.13;;;21.50;99.90;;;;;;2084517;28;20025;-71
2022/07/13 03:34:40;;;;;;;4.85;3.63;;;21.50;99.90;;;;;;2084329;28;20044;-71
2022/07/13 03:35:41;;;;;;;4.50;4.10;;;21.50;99.90;;;;;;2084360;28;20017;-71
2022/07/13 03:36:41;;;;;;;5.03;4.05;;;21.50;99.90;;;;;;2086576;28;20017;-71
2022/07/13 03:37:42;;;;;;;3.97;3.67;;;21.50;99.90;;;;;;2084804;28;20009;-71
2022/07/13 03:38:42;;;;;;;4.25;3.95;;;21.50;99.90;;;;;;2085999;28;20090;-71
2022/07/13 03:39:43;;;;;;;4.28;3.67;;;21.50;99.90;;;;;;2083232;28;20100;-71
2022/07/13 03:40:43;;;;;;;4.32;4.00;;;21.50;99.90;;;;;;2087547;28;21311;-71
2022/07/13 03:41:44;;;;;;;4.50;4.07;;;21.50;99.90;;;;;;2084867;28;20441;-71
2022/07/13 03:42:45;;;;;;;4.28;3.92;;;21.50;99.90;;;;;;2084574;28;20042;-71
2022/07/13 03:43:45;;;;;;;4.22;3.55;;;21.50;99.90;;;;;;2084360;28;20029;-71
2022/07/13 03:44:46;;;;;;;6.25;3.97;;;21.50;99.90;;;;;;2088858;28;20024;-71
2022/07/13 03:45:46;;;;;;;4.57;3.83;;;21.50;99.90;;;;;;2084283;28;20026;-71
2022/07/13 03:46:47;;;;;;;4.78;4.00;;;21.60;99.90;;;;;;2084218;28;20440;-71
2022/07/13 03:47:48;;;;;;;3.90;3.40;;;21.60;99.90;;;;;;2083184;28;20087;-71
2022/07/13 03:48:48;;;;;;;4.65;3.55;;;21.50;99.90;;;;;;2085428;28;20029;-71
2022/07/13 03:49:49;;;;;;;4.70;3.80;;;21.50;99.90;;;;;;2085435;28;20024;-71
2022/07/13 03:50:50;;;;;;;4.53;4.13;;;21.60;99.90;;;;;;2083817;28;20036;-71
2022/07/13 03:51:50;;;;;;;7.43;4.13;;;21.60;99.90;;;;;;2086966;28;20033;-71
2022/07/13 03:52:51;;;;;;;4.47;3.47;;;21.50;99.90;;;;;;2085313;28;20017;-71
2022/07/13 03:53:52;;;;;;;4.35;3.95;;;21.60;99.90;;;;;;2085766;28;20025;-71
2022/07/13 03:54:52;;;;;;;4.40;3.67;;;21.60;99.90;;;;;;2084863;28;20101;-71
2022/07/13 03:55:53;;;;;;;3.95;3.65;;;21.60;99.90;;;;;;2082020;28;20021;-71
2022/07/13 03:56:53;;;;;;;4.43;3.30;;;21.60;99.90;;;;;;2086615;28;20116;-71
2022/07/13 03:57:54;;;;;;;4.80;3.50;;;21.60;99.90;;;;;;2086449;28;20020;-71
2022/07/13 03:58:55;;;;;;;10.55;4.10;;;21.60;99.90;;;;;;2085303;28;20017;-71
2022/07/13 03:59:56;;;;;;;3.65;3.13;;;21.60;99.90;;;;;;2082429;28;20024;-71
2022/07/13 04:00:56;;;;;;;3.67;3.38;;;21.60;99.90;;;;;;2085454;28;20028;-71
2022/07/13 04:01:57;;;;;;;4.95;3.63;;;21.60;99.90;;;;;;2086683;28;20021;-71
2022/07/13 04:02:58;;;;;;;4.75;3.47;;;21.60;99.90;;;;;;2084971;28;20045;-71
2022/07/13 04:03:58;;;;;;;3.88;3.58;;;21.60;99.90;;;;;;2082206;28;20076;-71
2022/07/13 04:04:59;;;;;;;5.18;3.28;;;21.60;99.90;;;;;;2086385;28;20112;-71
2022/07/13 04:06:00;;;;;;;7.07;3.80;;;21.60;99.90;;;;;;2084650;28;20021;-71
2022/07/13 04:07:00;;;;;;;5.05;3.80;;;21.60;99.90;;;;;;2085784;28;20107;-71
2022/07/13 04:08:01;;;;;;;3.92;3.63;;;21.60;99.90;;;;;;2086159;28;20780;-71
2022/07/13 04:09:03;;;;;;;4.25;3.78;;;21.60;99.90;;;;;;2087507;28;20399;-71
2022/07/13 04:10:04;;;;;;;5.15;3.40;;;21.60;99.90;;;;;;2082963;28;20021;-71
2022/07/13 04:11:04;;;;;;;3.20;2.92;;;21.70;99.90;;;;;;2080639;28;20086;-71
2022/07/13 04:12:05;;;;;;;4.95;3.45;;;21.60;99.90;;;;;;2085565;28;20103;-71
2022/07/13 04:13:06;;;;;;;3.90;3.28;;;21.70;99.90;;;;;;2083469;28;20029;-71
2022/07/13 04:14:06;;;;;;;4.10;3.10;;;21.70;99.90;;;;;;2082678;28;20027;-71
2022/07/13 04:15:08;;;;;;;3.65;3.28;;;21.70;99.90;;;;;;2083664;28;20443;-71
2022/07/13 04:16:08;;;;;;;4.20;3.10;;;21.70;99.90;;;;;;2083926;28;20043;-71
2022/07/13 04:17:09;;;;;;;5.20;3.15;;;21.70;99.90;;;;;;2084581;28;20036;-71
2022/07/13 04:18:09;;;;;;;3.70;3.08;;;21.70;99.90;;;;;;2081596;28;20087;-71
2022/07/13 04:19:10;;;;;;;5.57;3.35;;;21.70;99.90;;;;;;2086177;28;20037;-71
2022/07/13 04:20:11;;;;;;;5.88;3.40;;;21.80;99.90;;;;;;2086831;28;20041;-71
2022/07/13 04:21:13;;;;;;;3.72;3.40;;;21.80;99.90;;;;;;2083050;28;20472;-71
2022/07/13 04:22:14;;;;;;;5.10;3.10;;;21.80;99.90;;;;;;2081417;28;20033;-71
2022/07/13 04:23:15;;;;;;;3.30;3.00;;;21.80;99.90;;;;;;2084975;28;20131;-70
2022/07/13 04:24:15;;;;;;;4.30;3.30;;;21.80;99.90;;;;;;2084575;28;20048;-70
2022/07/13 04:25:16;;;;;;;3.60;3.30;;;21.80;99.90;;;;;;2083660;28;20021;-70
2022/07/13 04:26:16;;;;;;;4.38;3.20;;;21.80;99.90;;;;;;2086327;28;20021;-70
2022/07/13 04:27:17;;;;;;;5.95;3.25;;;21.80;99.90;;;;;;2083164;28;20075;-70
2022/07/13 04:28:18;;;;;;;4.50;2.85;;;21.90;99.90;;;;;;2085805;28;20025;-70
2022/07/13 04:29:18;;;;;;;3.35;3.15;;;21.90;99.90;;;;;;2086461;28;20277;-70
2022/07/13 04:30:19;;;;;;;3.58;2.90;;;21.90;99.90;;;;;;2083945;28;20038;-71
2022/07/13 04:31:20;;;;;;;5.93;3.00;;;21.90;99.90;;;;;;2082424;28;20873;-71
2022/07/13 04:32:21;;;;;;;3.75;3.28;;;21.90;99.90;;;;;;2083773;28;20456;-71
2022/07/13 04:33:21;;;;;;;3.30;3.00;;;21.90;99.90;;;;;;2083955;28;20158;-71
2022/07/13 04:34:22;;;;;;;4.30;3.33;;;22.00;99.90;;;;;;2083009;28;20025;-71
2022/07/13 04:35:23;;;;;;;3.22;2.90;;;22.00;99.90;;;;;;2083020;28;20041;-71
2022/07/13 04:36:23;;;;;;;4.18;3.10;;;22.00;99.90;;;;;;2083489;28;20060;-71
2022/07/13 04:37:24;;;;;;;3.40;3.10;;;22.00;99.90;;;;;;2082817;28;20540;-71
2022/07/13 04:38:24;;;;;;;3.80;3.40;;;22.00;99.90;;;;;;2084256;28;20036;-71
2022/07/13 04:39:25;;;;;;;3.65;3.05;;;22.10;99.90;;;;;;2085851;28;20021;-71
2022/07/13 04:40:26;;;;;;;3.28;2.88;;;22.10;99.90;;;;;;2082694;28;20070;-71
2022/07/13 04:41:26;;;;;;;5.35;3.15;;;22.10;99.90;;;;;;2082420;28;20017;-71
2022/07/13 04:42:27;;;;;;;4.60;3.25;;;22.10;99.90;;;;;;2084548;28;20027;-71
2022/07/13 04:43:28;;;;;;;4.95;3.30;;;22.10;99.90;;;;;;2082140;28;20040;-71
2022/07/13 04:44:28;;;;;;;4.97;3.40;;;22.20;99.90;;;;;;2084753;28;20557;-71
2022/07/13 04:45:29;;;;;;;3.20;3.00;;;22.20;99.90;;;;;;2083229;28;20029;-71
2022/07/13 04:46:29;;;;;;;4.35;3.45;;;22.20;99.90;;;;;;2075475;28;20046;-71
2022/07/13 04:47:30;;;;;;;3.10;2.80;;;22.20;99.90;;;;;;2086061;28;20017;-71
2022/07/13 04:48:30;;;;;;;3.00;2.70;;;22.30;99.90;;;;;;2085374;28;20052;-71
2022/07/13 04:49:31;;;;;;;3.47;3.15;;;22.20;99.90;;;;;;2087372;28;20087;-71
2022/07/13 04:50:32;;;;;;;3.08;2.80;;;22.20;99.90;;;;;;2084034;28;20033;-71
2022/07/13 04:51:35;;;;;;;5.78;3.13;;;22.30;99.90;;;;;;2085720;28;20060;-71
2022/07/13 04:52:36;;;;;;;3.20;3.00;;;22.40;99.90;;;;;;2084854;28;20025;-71
2022/07/13 04:53:37;;;;;;;3.33;3.03;;;22.40;99.90;;;;;;2082732;28;20135;-71
2022/07/13 04:54:37;;;;;;;4.47;2.83;;;22.40;99.90;;;;;;2083425;28;20116;-71
2022/07/13 04:55:39;;;;;;;4.65;2.92;;;22.40;99.90;;;;;;2083901;28;20025;-71
2022/07/13 04:56:39;;;;;;;3.22;3.03;;;22.40;99.90;;;;;;2085072;28;20036;-71
2022/07/13 04:57:40;;;;;;;3.67;3.15;;;22.50;99.90;;;;;;2082721;28;20060;-71
2022/07/13 04:58:40;;;;;;;6.55;2.92;;;22.50;99.90;;;;;;2082304;28;20036;-71
2022/07/13 04:59:41;;;;;;;4.03;2.90;;;22.50;99.90;;;;;;2085038;28;20021;-71
2022/07/13 05:00:41;;;;;;;3.85;2.65;;;22.50;99.90;;;;;;2083812;28;20025;-71
2022/07/13 05:01:42;;;;;;;4.05;3.08;;;22.50;99.90;;;;;;2084140;28;20553;-71
2022/07/13 05:02:43;;;;;;;6.07;2.53;;;22.60;99.90;;;;;;2082565;28;20993;-71
2022/07/13 05:03:43;;;;;;;3.42;2.92;;;22.60;99.90;;;;;;2086723;28;20028;-71
2022/07/13 05:04:44;;;;;;;3.25;3.03;;;22.60;99.90;;;;;;2086674;28;20465;-71
2022/07/13 05:05:45;;;;;;;3.80;3.33;;;22.60;99.90;;;;;;2082621;28;20108;-71
2022/07/13 05:06:45;;;;;;;4.30;2.95;;;22.60;99.90;;;;;;2081617;28;20545;-71
2022/07/13 05:07:46;;;;;;;3.55;2.53;;;22.60;99.90;;;;;;2085635;28;20049;-70
2022/07/13 05:08:46;;;;;;;2.80;2.60;;;22.70;99.90;;;;;;2084178;28;20707;-71
2022/07/13 05:09:47;;;;;;;3.33;2.60;;;22.70;99.90;;;;;;2083699;28;20464;-70
2022/07/13 05:10:48;;;;;;;5.53;3.03;;;22.70;99.90;;;;;;2084025;28;20021;-70
2022/07/13 05:11:48;;;;;;;3.58;2.53;;;22.70;99.90;;;;;;2084640;28;20088;-70
2022/07/13 05:12:49;;;;;;;2.60;2.40;;;22.80;99.90;;;;;;2082140;28;20496;-71
2022/07/13 05:13:50;;;;;;;3.28;2.47;;;22.80;99.90;;;;;;2084842;28;20061;-71
2022/07/13 05:14:50;;;;;;;3.05;2.70;;;22.80;99.90;;;;;;2083685;28;20040;-71
2022/07/13 05:15:51;;;;;;;3.83;2.50;;;22.80;99.90;;;;;;2085822;28;20143;-70
2022/07/13 05:16:52;;;;;;;2.97;2.60;;;22.80;99.90;;;;;;2084054;28;20028;-70
2022/07/13 05:17:52;;;;;;;3.28;2.40;;;22.80;99.90;;;;;;2083371;28;20040;-70